sensor_id;sensor_type;location;lat;lon;timestamp;temperature;humidity
12223;DHT22;6174;49.058;8.524;2022-07-03T00:02:21;19.90;90.40
12223;DHT22;6174;49.058;8.524;2022-07-03T00:04:47;19.90;90.40
12223;DHT22;6174;49.058;8.524;2022-07-03T00:07:16;19.70;90.70
12223;DHT22;6174;49.058;8.524;2022-07-03T00:09:42;19.80;90.80
12223;DHT22;6174;49.058;8.524;2022-07-03T00:12:10;19.80;91.20
12223;DHT22;6174;49.058;8.524;2022-07-03T00:14:36;19.70;91.60
12223;DHT22;6174;49.058;8.524;2022-07-03T00:17:04;19.70;91.70
12223;DHT22;6174;49.058;8.524;2022-07-03T00:19:30;19.70;91.70
12223;DHT22;6174;49.058;8.524;2022-07-03T00:22:02;19.50;91.60
12223;DHT22;6174;49.058;8.524;2022-07-03T00:24:32;19.60;91.60
12223;DHT22;6174;49.058;8.524;2022-07-03T00:27:07;19.70;91.90
12223;DHT22;6174;49.058;8.524;2022-07-03T00:29:36;19.60;92.00
12223;DHT22;6174;49.058;8.524;2022-07-03T00:32:06;19.50;92.30
12223;DHT22;6174;49.058;8.524;2022-07-03T00:34:34;19.60;92.30
12223;DHT22;6174;49.058;8.524;2022-07-03T00:37:02;19.50;92.40
12223;DHT22;6174;49.058;8.524;2022-07-03T00:39:28;19.50;92.60
12223;DHT22;6174;49.058;8.524;2022-07-03T00:42:03;19.40;92.60
12223;DHT22;6174;49.058;8.524;2022-07-03T00:44:33;19.50;93.00
12223;DHT22;6174;49.058;8.524;2022-07-03T00:47:02;19.40;93.00
12223;DHT22;6174;49.058;8.524;2022-07-03T00:49:31;19.40;93.10
12223;DHT22;6174;49.058;8.524;2022-07-03T00:52:03;19.40;93.40
12223;DHT22;6174;49.058;8.524;2022-07-03T00:54:33;19.40;93.10
12223;DHT22;6174;49.058;8.524;2022-07-03T00:57:02;19.30;93.40
12223;DHT22;6174;49.058;8.524;2022-07-03T00:59:29;19.30;93.80
12223;DHT22;6174;49.058;8.524;2022-07-03T01:02:02;19.30;93.80
12223;DHT22;6174;49.058;8.524;2022-07-03T01:04:40;19.30;94.00
12223;DHT22;6174;49.058;8.524;2022-07-03T01:07:15;19.30;94.10
12223;DHT22;6174;49.058;8.524;2022-07-03T01:09:50;19.30;94.20
12223;DHT22;6174;49.058;8.524;2022-07-03T01:12:31;19.20;94.40
12223;DHT22;6174;49.058;8.524;2022-07-03T01:15:07;19.30;94.00
12223;DHT22;6174;49.058;8.524;2022-07-03T01:17:39;19.20;94.40
12223;DHT22;6174;49.058;8.524;2022-07-03T01:20:07;19.20;94.50
12223;DHT22;6174;49.058;8.524;2022-07-03T01:22:35;19.20;94.30
12223;DHT22;6174;49.058;8.524;2022-07-03T01:25:16;19.00;94.40
12223;DHT22;6174;49.058;8.524;2022-07-03T01:28:02;19.00;95.10
12223;DHT22;6174;49.058;8.524;2022-07-03T01:30:42;19.00;95.00
12223;DHT22;6174;49.058;8.524;2022-07-03T01:33:12;19.00;95.50
12223;DHT22;6174;49.058;8.524;2022-07-03T01:35:47;19.00;95.60
12223;DHT22;6174;49.058;8.524;2022-07-03T01:38:21;18.90;95.80
12223;DHT22;6174;49.058;8.524;2022-07-03T01:40:49;18.90;96.20
12223;DHT22;6174;49.058;8.524;2022-07-03T01:43:19;18.90;96.40
12223;DHT22;6174;49.058;8.524;2022-07-03T01:45:48;18.80;96.50
12223;DHT22;6174;49.058;8.524;2022-07-03T01:48:18;18.80;96.30
12223;DHT22;6174;49.058;8.524;2022-07-03T01:50:46;18.80;96.80
12223;DHT22;6174;49.058;8.524;2022-07-03T01:53:16;18.80;96.50
12223;DHT22;6174;49.058;8.524;2022-07-03T01:55:43;18.80;97.20
12223;DHT22;6174;49.058;8.524;2022-07-03T01:58:11;18.70;97.20
12223;DHT22;6174;49.058;8.524;2022-07-03T02:00:46;18.70;97.10
12223;DHT22;6174;49.058;8.524;2022-07-03T02:03:21;18.70;96.90
12223;DHT22;6174;49.058;8.524;2022-07-03T02:05:55;18.80;96.80
12223;DHT22;6174;49.058;8.524;2022-07-03T02:08:33;18.70;97.00
12223;DHT22;6174;49.058;8.524;2022-07-03T02:11:09;18.70;97.40
12223;DHT22;6174;49.058;8.524;2022-07-03T02:13:39;18.70;97.30
12223;DHT22;6174;49.058;8.524;2022-07-03T02:16:08;18.60;97.60
12223;DHT22;6174;49.058;8.524;2022-07-03T02:18:37;18.60;97.50
12223;DHT22;6174;49.058;8.524;2022-07-03T02:21:10;18.60;97.40
12223;DHT22;6174;49.058;8.524;2022-07-03T02:23:45;18.60;97.50
12223;DHT22;6174;49.058;8.524;2022-07-03T02:26:16;18.60;98.10
12223;DHT22;6174;49.058;8.524;2022-07-03T02:28:56;18.50;98.50
12223;DHT22;6174;49.058;8.524;2022-07-03T02:31:26;18.50;98.30
12223;DHT22;6174;49.058;8.524;2022-07-03T02:33:56;18.60;98.70
12223;DHT22;6174;49.058;8.524;2022-07-03T02:36:24;18.50;99.20
12223;DHT22;6174;49.058;8.524;2022-07-03T02:38:56;18.50;99.00
12223;DHT22;6174;49.058;8.524;2022-07-03T02:41:24;18.50;99.20
12223;DHT22;6174;49.058;8.524;2022-07-03T02:43:59;18.50;98.90
12223;DHT22;6174;49.058;8.524;2022-07-03T02:46:38;18.50;98.70
12223;DHT22;6174;49.058;8.524;2022-07-03T02:49:22;18.50;98.60
12223;DHT22;6174;49.058;8.524;2022-07-03T02:51:57;18.50;98.90
12223;DHT22;6174;49.058;8.524;2022-07-03T02:54:26;18.40;99.10
12223;DHT22;6174;49.058;8.524;2022-07-03T02:56:59;18.40;99.10
12223;DHT22;6174;49.058;8.524;2022-07-03T02:59:45;18.50;98.90
12223;DHT22;6174;49.058;8.524;2022-07-03T03:02:19;18.40;99.40
12223;DHT22;6174;49.058;8.524;2022-07-03T03:04:55;18.70;99.90
12223;DHT22;6174;49.058;8.524;2022-07-03T03:07:32;18.40;99.60
12223;DHT22;6174;49.058;8.524;2022-07-03T03:10:00;18.30;99.60
12223;DHT22;6174;49.058;8.524;2022-07-03T03:12:30;18.20;99.80
12223;DHT22;6174;49.058;8.524;2022-07-03T03:15:02;18.20;99.90
12223;DHT22;6174;49.058;8.524;2022-07-03T03:17:36;18.20;99.90
12223;DHT22;6174;49.058;8.524;2022-07-03T03:20:07;18.20;99.90
12223;DHT22;6174;49.058;8.524;2022-07-03T03:22:43;18.10;99.90
12223;DHT22;6174;49.058;8.524;2022-07-03T03:25:14;18.10;99.90
12223;DHT22;6174;49.058;8.524;2022-07-03T03:27:41;18.00;99.90
12223;DHT22;6174;49.058;8.524;2022-07-03T03:30:09;18.00;99.90
12223;DHT22;6174;49.058;8.524;2022-07-03T03:32:38;18.10;99.90
12223;DHT22;6174;49.058;8.524;2022-07-03T03:35:07;18.10;99.90
12223;DHT22;6174;49.058;8.524;2022-07-03T03:37:34;18.10;99.90
12223;DHT22;6174;49.058;8.524;2022-07-03T03:40:02;18.10;99.90
12223;DHT22;6174;49.058;8.524;2022-07-03T03:42:29;18.10;99.90
12223;DHT22;6174;49.058;8.524;2022-07-03T03:44:56;18.00;99.90
12223;DHT22;6174;49.058;8.524;2022-07-03T03:47:23;18.10;99.90
12223;DHT22;6174;49.058;8.524;2022-07-03T03:49:51;18.10;99.90
12223;DHT22;6174;49.058;8.524;2022-07-03T03:52:18;18.00;99.90
12223;DHT22;6174;49.058;8.524;2022-07-03T03:54:45;18.00;99.90
12223;DHT22;6174;49.058;8.524;2022-07-03T03:57:17;17.90;99.90
12223;DHT22;6174;49.058;8.524;2022-07-03T03:59:44;17.90;99.90
12223;DHT22;6174;49.058;8.524;2022-07-03T04:02:11;17.90;99.90
12223;DHT22;6174;49.058;8.524;2022-07-03T04:04:38;17.80;99.90
12223;DHT22;6174;49.058;8.524;2022-07-03T04:07:07;17.90;99.90
12223;DHT22;6174;49.058;8.524;2022-07-03T04:09:33;17.90;99.90
12223;DHT22;6174;49.058;8.524;2022-07-03T04:12:00;17.90;99.90
12223;DHT22;6174;49.058;8.524;2022-07-03T04:14:27;17.90;99.90
12223;DHT22;6174;49.058;8.524;2022-07-03T04:16:54;17.90;99.90
12223;DHT22;6174;49.058;8.524;2022-07-03T04:19:21;17.90;99.90
12223;DHT22;6174;49.058;8.524;2022-07-03T04:21:48;17.90;99.90
12223;DHT22;6174;49.058;8.524;2022-07-03T04:24:18;18.00;99.90
12223;DHT22;6174;49.058;8.524;2022-07-03T04:26:46;18.00;99.90
12223;DHT22;6174;49.058;8.524;2022-07-03T04:29:13;18.00;99.90
12223;DHT22;6174;49.058;8.524;2022-07-03T04:31:40;18.00;99.90
12223;DHT22;6174;49.058;8.524;2022-07-03T04:34:06;18.00;99.90
12223;DHT22;6174;49.058;8.524;2022-07-03T04:36:33;18.10;99.90
12223;DHT22;6174;49.058;8.524;2022-07-03T04:39:00;18.10;99.90
12223;DHT22;6174;49.058;8.524;2022-07-03T04:41:28;18.20;99.90
12223;DHT22;6174;49.058;8.524;2022-07-03T04:43:55;18.30;99.90
12223;DHT22;6174;49.058;8.524;2022-07-03T04:46:22;18.30;99.90
12223;DHT22;6174;49.058;8.524;2022-07-03T04:48:48;18.30;99.90
12223;DHT22;6174;49.058;8.524;2022-07-03T04:51:15;18.30;99.90
12223;DHT22;6174;49.058;8.524;2022-07-03T04:53:42;18.40;99.90
12223;DHT22;6174;49.058;8.524;2022-07-03T04:56:09;18.50;99.90
12223;DHT22;6174;49.058;8.524;2022-07-03T04:58:37;18.50;99.90
12223;DHT22;6174;49.058;8.524;2022-07-03T05:01:04;18.60;99.90
12223;DHT22;6174;49.058;8.524;2022-07-03T05:03:30;18.60;99.90
12223;DHT22;6174;49.058;8.524;2022-07-03T05:05:58;18.80;99.90
12223;DHT22;6174;49.058;8.524;2022-07-03T05:08:24;18.80;99.90
12223;DHT22;6174;49.058;8.524;2022-07-03T05:10:51;18.80;99.90
12223;DHT22;6174;49.058;8.524;2022-07-03T05:13:18;18.90;99.90
12223;DHT22;6174;49.058;8.524;2022-07-03T05:15:46;19.10;99.90
12223;DHT22;6174;49.058;8.524;2022-07-03T05:18:13;19.10;99.90
12223;DHT22;6174;49.058;8.524;2022-07-03T05:20:40;19.20;99.90
12223;DHT22;6174;49.058;8.524;2022-07-03T05:23:07;19.30;99.90
12223;DHT22;6174;49.058;8.524;2022-07-03T05:25:33;19.30;99.90
12223;DHT22;6174;49.058;8.524;2022-07-03T05:28:00;19.40;99.90
12223;DHT22;6174;49.058;8.524;2022-07-03T05:30:27;19.40;99.90
12223;DHT22;6174;49.058;8.524;2022-07-03T05:32:56;19.40;99.90
12223;DHT22;6174;49.058;8.524;2022-07-03T05:35:23;19.50;99.90
12223;DHT22;6174;49.058;8.524;2022-07-03T05:37:49;19.50;99.90
12223;DHT22;6174;49.058;8.524;2022-07-03T05:40:16;19.50;99.90
12223;DHT22;6174;49.058;8.524;2022-07-03T05:42:43;19.50;99.90
12223;DHT22;6174;49.058;8.524;2022-07-03T05:45:10;19.60;99.90
12223;DHT22;6174;49.058;8.524;2022-07-03T05:47:37;19.70;99.90
12223;DHT22;6174;49.058;8.524;2022-07-03T05:50:07;19.70;99.90
12223;DHT22;6174;49.058;8.524;2022-07-03T05:52:34;19.90;99.90
12223;DHT22;6174;49.058;8.524;2022-07-03T05:55:00;19.80;99.90
12223;DHT22;6174;49.058;8.524;2022-07-03T05:57:27;20.00;99.90
12223;DHT22;6174;49.058;8.524;2022-07-03T05:59:54;20.10;99.90
12223;DHT22;6174;49.058;8.524;2022-07-03T06:02:21;20.10;99.90
12223;DHT22;6174;49.058;8.524;2022-07-03T06:04:48;20.10;99.90
12223;DHT22;6174;49.058;8.524;2022-07-03T06:07:16;20.20;99.60
12223;DHT22;6174;49.058;8.524;2022-07-03T06:09:43;20.30;99.90
12223;DHT22;6174;49.058;8.524;2022-07-03T06:12:10;20.30;99.70
12223;DHT22;6174;49.058;8.524;2022-07-03T06:14:37;20.40;99.40
12223;DHT22;6174;49.058;8.524;2022-07-03T06:17:04;20.50;99.40
12223;DHT22;6174;49.058;8.524;2022-07-03T06:19:31;20.50;99.70
12223;DHT22;6174;49.058;8.524;2022-07-03T06:21:58;20.60;99.90
12223;DHT22;6174;49.058;8.524;2022-07-03T06:24:26;20.70;99.30
12223;DHT22;6174;49.058;8.524;2022-07-03T06:26:52;20.80;99.50
12223;DHT22;6174;49.058;8.524;2022-07-03T06:29:19;20.90;98.40
12223;DHT22;6174;49.058;8.524;2022-07-03T06:31:46;20.90;98.50
12223;DHT22;6174;49.058;8.524;2022-07-03T06:34:13;21.00;98.90
12223;DHT22;6174;49.058;8.524;2022-07-03T06:36:39;21.20;99.20
12223;DHT22;6174;49.058;8.524;2022-07-03T06:39:06;21.20;98.40
12223;DHT22;6174;49.058;8.524;2022-07-03T06:41:34;21.40;98.10
12223;DHT22;6174;49.058;8.524;2022-07-03T06:44:02;21.50;96.80
12223;DHT22;6174;49.058;8.524;2022-07-03T06:46:29;21.60;97.30
12223;DHT22;6174;49.058;8.524;2022-07-03T06:48:56;21.70;95.70
12223;DHT22;6174;49.058;8.524;2022-07-03T06:51:23;21.80;94.40
12223;DHT22;6174;49.058;8.524;2022-07-03T06:53:49;21.90;94.30
12223;DHT22;6174;49.058;8.524;2022-07-03T06:56:16;22.00;93.60
12223;DHT22;6174;49.058;8.524;2022-07-03T06:58:44;22.10;93.10
12223;DHT22;6174;49.058;8.524;2022-07-03T07:01:11;22.20;91.90
12223;DHT22;6174;49.058;8.524;2022-07-03T07:03:38;22.40;91.40
12223;DHT22;6174;49.058;8.524;2022-07-03T07:06:05;22.50;90.60
12223;DHT22;6174;49.058;8.524;2022-07-03T07:08:31;22.60;90.00
12223;DHT22;6174;49.058;8.524;2022-07-03T07:10:58;22.70;89.80
12223;DHT22;6174;49.058;8.524;2022-07-03T07:13:26;22.80;89.00
12223;DHT22;6174;49.058;8.524;2022-07-03T07:15:54;22.90;85.80
12223;DHT22;6174;49.058;8.524;2022-07-03T07:18:21;22.90;83.50
12223;DHT22;6174;49.058;8.524;2022-07-03T07:20:47;23.00;82.80
12223;DHT22;6174;49.058;8.524;2022-07-03T07:23:14;23.00;82.70
12223;DHT22;6174;49.058;8.524;2022-07-03T07:25:41;23.10;82.10
12223;DHT22;6174;49.058;8.524;2022-07-03T07:28:08;23.20;81.90
12223;DHT22;6174;49.058;8.524;2022-07-03T07:30:35;23.20;80.90
12223;DHT22;6174;49.058;8.524;2022-07-03T07:33:03;23.30;81.20
12223;DHT22;6174;49.058;8.524;2022-07-03T07:35:30;23.30;80.80
12223;DHT22;6174;49.058;8.524;2022-07-03T07:37:57;23.40;80.90
12223;DHT22;6174;49.058;8.524;2022-07-03T07:40:24;23.50;79.80
12223;DHT22;6174;49.058;8.524;2022-07-03T07:42:51;23.30;78.10
12223;DHT22;6174;49.058;8.524;2022-07-03T07:45:17;23.60;78.10
12223;DHT22;6174;49.058;8.524;2022-07-03T07:47:44;23.70;76.90
12223;DHT22;6174;49.058;8.524;2022-07-03T07:50:12;23.70;74.80
12223;DHT22;6174;49.058;8.524;2022-07-03T07:52:40;23.80;74.50
12223;DHT22;6174;49.058;8.524;2022-07-03T07:55:07;23.80;74.40
12223;DHT22;6174;49.058;8.524;2022-07-03T07:57:35;23.80;76.20
12223;DHT22;6174;49.058;8.524;2022-07-03T08:00:07;23.80;75.00
12223;DHT22;6174;49.058;8.524;2022-07-03T08:02:34;23.90;74.40
12223;DHT22;6174;49.058;8.524;2022-07-03T08:05:19;24.00;74.10
12223;DHT22;6174;49.058;8.524;2022-07-03T08:08:06;24.10;74.30
12223;DHT22;6174;49.058;8.524;2022-07-03T08:10:40;24.20;73.20
12223;DHT22;6174;49.058;8.524;2022-07-03T08:13:07;24.20;71.60
12223;DHT22;6174;49.058;8.524;2022-07-03T08:15:35;24.30;72.70
12223;DHT22;6174;49.058;8.524;2022-07-03T08:18:02;24.30;73.40
12223;DHT22;6174;49.058;8.524;2022-07-03T08:20:31;24.40;73.60
12223;DHT22;6174;49.058;8.524;2022-07-03T08:22:58;24.50;71.50
12223;DHT22;6174;49.058;8.524;2022-07-03T08:25:25;24.50;70.70
12223;DHT22;6174;49.058;8.524;2022-07-03T08:27:52;24.60;69.70
12223;DHT22;6174;49.058;8.524;2022-07-03T08:30:19;24.60;70.40
12223;DHT22;6174;49.058;8.524;2022-07-03T08:32:46;24.70;72.10
12223;DHT22;6174;49.058;8.524;2022-07-03T08:35:13;24.80;70.70
12223;DHT22;6174;49.058;8.524;2022-07-03T08:37:42;24.80;70.90
12223;DHT22;6174;49.058;8.524;2022-07-03T08:40:10;24.90;69.10
12223;DHT22;6174;49.058;8.524;2022-07-03T08:42:37;24.90;70.30
12223;DHT22;6174;49.058;8.524;2022-07-03T08:45:07;24.90;70.90
12223;DHT22;6174;49.058;8.524;2022-07-03T08:47:36;25.00;69.40
12223;DHT22;6174;49.058;8.524;2022-07-03T08:50:04;25.00;68.60
12223;DHT22;6174;49.058;8.524;2022-07-03T08:52:33;25.10;69.10
12223;DHT22;6174;49.058;8.524;2022-07-03T08:55:03;25.10;67.10
12223;DHT22;6174;49.058;8.524;2022-07-03T08:57:31;25.20;68.80
12223;DHT22;6174;49.058;8.524;2022-07-03T09:00:01;25.20;68.40
12223;DHT22;6174;49.058;8.524;2022-07-03T09:02:30;25.30;66.60
12223;DHT22;6174;49.058;8.524;2022-07-03T09:04:58;25.40;66.90
12223;DHT22;6174;49.058;8.524;2022-07-03T09:07:26;25.40;68.70
12223;DHT22;6174;49.058;8.524;2022-07-03T09:09:53;25.40;66.90
12223;DHT22;6174;49.058;8.524;2022-07-03T09:12:23;25.50;68.40
12223;DHT22;6174;49.058;8.524;2022-07-03T09:14:50;25.60;68.80
12223;DHT22;6174;49.058;8.524;2022-07-03T09:17:17;25.70;68.80
12223;DHT22;6174;49.058;8.524;2022-07-03T09:19:44;25.70;67.00
12223;DHT22;6174;49.058;8.524;2022-07-03T09:22:23;25.80;67.40
12223;DHT22;6174;49.058;8.524;2022-07-03T09:24:51;25.70;64.80
12223;DHT22;6174;49.058;8.524;2022-07-03T09:27:22;25.70;62.60
12223;DHT22;6174;49.058;8.524;2022-07-03T09:30:00;25.80;62.10
12223;DHT22;6174;49.058;8.524;2022-07-03T09:32:32;25.80;62.40
12223;DHT22;6174;49.058;8.524;2022-07-03T09:35:16;25.80;59.60
12223;DHT22;6174;49.058;8.524;2022-07-03T09:37:49;25.90;62.80
12223;DHT22;6174;49.058;8.524;2022-07-03T09:40:16;26.00;60.90
12223;DHT22;6174;49.058;8.524;2022-07-03T09:42:57;26.10;58.90
12223;DHT22;6174;49.058;8.524;2022-07-03T09:45:26;26.10;59.50
12223;DHT22;6174;49.058;8.524;2022-07-03T09:47:53;26.20;58.60
12223;DHT22;6174;49.058;8.524;2022-07-03T09:50:20;26.20;59.00
12223;DHT22;6174;49.058;8.524;2022-07-03T09:52:47;26.20;59.80
12223;DHT22;6174;49.058;8.524;2022-07-03T09:55:16;26.30;57.70
12223;DHT22;6174;49.058;8.524;2022-07-03T09:57:45;26.30;58.50
12223;DHT22;6174;49.058;8.524;2022-07-03T10:00:15;26.40;57.40
12223;DHT22;6174;49.058;8.524;2022-07-03T10:02:59;26.30;57.10
12223;DHT22;6174;49.058;8.524;2022-07-03T10:05:28;26.30;55.80
12223;DHT22;6174;49.058;8.524;2022-07-03T10:07:56;26.30;58.10
12223;DHT22;6174;49.058;8.524;2022-07-03T10:10:25;26.40;58.30
12223;DHT22;6174;49.058;8.524;2022-07-03T10:12:53;26.40;58.00
12223;DHT22;6174;49.058;8.524;2022-07-03T10:15:21;26.40;56.30
12223;DHT22;6174;49.058;8.524;2022-07-03T10:17:59;26.40;57.60
12223;DHT22;6174;49.058;8.524;2022-07-03T10:20:30;26.40;58.00
12223;DHT22;6174;49.058;8.524;2022-07-03T10:22:58;26.50;57.90
12223;DHT22;6174;49.058;8.524;2022-07-03T10:25:25;26.60;56.90
12223;DHT22;6174;49.058;8.524;2022-07-03T10:27:52;26.50;56.60
12223;DHT22;6174;49.058;8.524;2022-07-03T10:30:19;26.50;58.60
12223;DHT22;6174;49.058;8.524;2022-07-03T10:32:47;26.60;56.50
12223;DHT22;6174;49.058;8.524;2022-07-03T10:35:18;26.60;56.20
12223;DHT22;6174;49.058;8.524;2022-07-03T10:37:57;26.80;55.00
12223;DHT22;6174;49.058;8.524;2022-07-03T10:40:32;26.80;54.30
12223;DHT22;6174;49.058;8.524;2022-07-03T10:43:25;27.00;53.90
12223;DHT22;6174;49.058;8.524;2022-07-03T10:46:12;27.00;54.30
12223;DHT22;6174;49.058;8.524;2022-07-03T10:48:56;27.00;55.20
12223;DHT22;6174;49.058;8.524;2022-07-03T10:51:25;27.10;55.10
12223;DHT22;6174;49.058;8.524;2022-07-03T10:54:15;27.20;53.60
12223;DHT22;6174;49.058;8.524;2022-07-03T10:57:12;27.20;55.10
12223;DHT22;6174;49.058;8.524;2022-07-03T11:02:49;27.40;54.80
12223;DHT22;6174;49.058;8.524;2022-07-03T11:05:25;27.30;54.50
12223;DHT22;6174;49.058;8.524;2022-07-03T11:08:09;27.20;54.20
12223;DHT22;6174;49.058;8.524;2022-07-03T11:10:38;27.30;53.20
12223;DHT22;6174;49.058;8.524;2022-07-03T11:13:45;27.40;54.00
12223;DHT22;6174;49.058;8.524;2022-07-03T11:16:48;27.50;53.20
12223;DHT22;6174;49.058;8.524;2022-07-03T11:19:15;27.50;54.20
12223;DHT22;6174;49.058;8.524;2022-07-03T11:22:01;27.50;55.60
12223;DHT22;6174;49.058;8.524;2022-07-03T11:24:53;27.50;54.10
12223;DHT22;6174;49.058;8.524;2022-07-03T11:28:08;27.50;53.90
12223;DHT22;6174;49.058;8.524;2022-07-03T11:31:20;27.50;53.90
12223;DHT22;6174;49.058;8.524;2022-07-03T11:33:57;27.50;56.00
12223;DHT22;6174;49.058;8.524;2022-07-03T11:36:33;27.60;55.00
12223;DHT22;6174;49.058;8.524;2022-07-03T11:39:13;27.60;52.30
12223;DHT22;6174;49.058;8.524;2022-07-03T11:41:45;27.70;53.60
12223;DHT22;6174;49.058;8.524;2022-07-03T11:44:18;27.80;53.00
12223;DHT22;6174;49.058;8.524;2022-07-03T11:46:50;27.80;52.80
12223;DHT22;6174;49.058;8.524;2022-07-03T11:49:25;27.70;52.60
12223;DHT22;6174;49.058;8.524;2022-07-03T11:51:55;27.70;55.30
12223;DHT22;6174;49.058;8.524;2022-07-03T11:54:55;27.90;53.90
12223;DHT22;6174;49.058;8.524;2022-07-03T11:57:15;27.90;54.90
12223;DHT22;6174;49.058;8.524;2022-07-03T11:59:44;28.00;56.80
12223;DHT22;6174;49.058;8.524;2022-07-03T12:02:11;28.00;54.80
12223;DHT22;6174;49.058;8.524;2022-07-03T12:04:40;28.10;54.20
12223;DHT22;6174;49.058;8.524;2022-07-03T12:07:20;28.20;51.70
12223;DHT22;6174;49.058;8.524;2022-07-03T12:10:03;28.20;51.40
12223;DHT22;6174;49.058;8.524;2022-07-03T12:12:37;28.30;51.50
12223;DHT22;6174;49.058;8.524;2022-07-03T12:15:04;28.30;52.80
12223;DHT22;6174;49.058;8.524;2022-07-03T12:17:31;28.30;51.00
12223;DHT22;6174;49.058;8.524;2022-07-03T12:20:00;28.30;48.70
12223;DHT22;6174;49.058;8.524;2022-07-03T12:22:29;28.20;49.10
12223;DHT22;6174;49.058;8.524;2022-07-03T12:24:58;28.20;50.70
12223;DHT22;6174;49.058;8.524;2022-07-03T12:27:27;28.40;51.60
12223;DHT22;6174;49.058;8.524;2022-07-03T12:29:57;28.40;52.10
12223;DHT22;6174;49.058;8.524;2022-07-03T12:32:24;28.50;52.60
12223;DHT22;6174;49.058;8.524;2022-07-03T12:34:51;28.60;51.50
12223;DHT22;6174;49.058;8.524;2022-07-03T12:37:31;28.60;52.90
12223;DHT22;6174;49.058;8.524;2022-07-03T12:39:57;28.60;52.10
12223;DHT22;6174;49.058;8.524;2022-07-03T12:42:24;28.60;53.20
12223;DHT22;6174;49.058;8.524;2022-07-03T12:44:56;28.60;54.80
12223;DHT22;6174;49.058;8.524;2022-07-03T12:47:24;28.70;51.00
12223;DHT22;6174;49.058;8.524;2022-07-03T12:49:58;28.70;50.40
12223;DHT22;6174;49.058;8.524;2022-07-03T12:52:26;28.60;52.40
12223;DHT22;6174;49.058;8.524;2022-07-03T12:54:53;28.60;51.30
12223;DHT22;6174;49.058;8.524;2022-07-03T12:57:21;28.60;51.40
12223;DHT22;6174;49.058;8.524;2022-07-03T13:00:09;28.70;52.00
12223;DHT22;6174;49.058;8.524;2022-07-03T13:02:38;28.70;52.10
12223;DHT22;6174;49.058;8.524;2022-07-03T13:05:14;28.60;53.10
12223;DHT22;6174;49.058;8.524;2022-07-03T13:07:41;28.70;50.40
12223;DHT22;6174;49.058;8.524;2022-07-03T13:10:09;28.70;52.90
12223;DHT22;6174;49.058;8.524;2022-07-03T13:12:45;28.80;51.80
12223;DHT22;6174;49.058;8.524;2022-07-03T13:15:14;28.90;50.50
12223;DHT22;6174;49.058;8.524;2022-07-03T13:17:59;28.90;51.10
12223;DHT22;6174;49.058;8.524;2022-07-03T13:20:28;28.90;51.00
12223;DHT22;6174;49.058;8.524;2022-07-03T13:22:57;28.90;51.10
12223;DHT22;6174;49.058;8.524;2022-07-03T13:25:24;29.00;51.00
12223;DHT22;6174;49.058;8.524;2022-07-03T13:27:51;29.00;52.90
12223;DHT22;6174;49.058;8.524;2022-07-03T13:30:20;29.10;51.60
12223;DHT22;6174;49.058;8.524;2022-07-03T13:32:46;29.10;52.60
12223;DHT22;6174;49.058;8.524;2022-07-03T13:35:13;29.30;51.00
12223;DHT22;6174;49.058;8.524;2022-07-03T13:37:40;29.20;51.30
12223;DHT22;6174;49.058;8.524;2022-07-03T13:40:07;29.20;52.10
12223;DHT22;6174;49.058;8.524;2022-07-03T13:42:34;29.20;50.20
12223;DHT22;6174;49.058;8.524;2022-07-03T13:45:01;29.20;50.20
12223;DHT22;6174;49.058;8.524;2022-07-03T13:47:30;29.30;51.10
12223;DHT22;6174;49.058;8.524;2022-07-03T13:49:57;29.30;50.40
12223;DHT22;6174;49.058;8.524;2022-07-03T13:52:24;29.30;51.20
12223;DHT22;6174;49.058;8.524;2022-07-03T13:54:50;29.40;51.00
12223;DHT22;6174;49.058;8.524;2022-07-03T13:57:17;29.50;49.80
12223;DHT22;6174;49.058;8.524;2022-07-03T13:59:44;29.50;49.30
12223;DHT22;6174;49.058;8.524;2022-07-03T14:02:11;29.60;49.80
12223;DHT22;6174;49.058;8.524;2022-07-03T14:04:39;29.70;51.90
12223;DHT22;6174;49.058;8.524;2022-07-03T14:07:06;29.90;50.00
12223;DHT22;6174;49.058;8.524;2022-07-03T14:09:33;29.90;51.70
12223;DHT22;6174;49.058;8.524;2022-07-03T14:12:00;30.00;47.80
12223;DHT22;6174;49.058;8.524;2022-07-03T14:14:27;30.10;49.00
12223;DHT22;6174;49.058;8.524;2022-07-03T14:16:53;30.20;49.40
12223;DHT22;6174;49.058;8.524;2022-07-03T14:19:20;30.50;48.30
12223;DHT22;6174;49.058;8.524;2022-07-03T14:21:48;31.10;48.20
12223;DHT22;6174;49.058;8.524;2022-07-03T14:24:15;31.60;45.80
12223;DHT22;6174;49.058;8.524;2022-07-03T14:26:42;31.90;44.70
12223;DHT22;6174;49.058;8.524;2022-07-03T14:29:26;32.20;45.60
12223;DHT22;6174;49.058;8.524;2022-07-03T14:32:10;32.30;45.60
12223;DHT22;6174;49.058;8.524;2022-07-03T14:34:55;32.00;42.10
12223;DHT22;6174;49.058;8.524;2022-07-03T14:37:24;31.70;42.50
12223;DHT22;6174;49.058;8.524;2022-07-03T14:39:51;31.40;44.20
12223;DHT22;6174;49.058;8.524;2022-07-03T14:42:20;31.50;44.80
12223;DHT22;6174;49.058;8.524;2022-07-03T14:45:08;31.70;44.60
12223;DHT22;6174;49.058;8.524;2022-07-03T14:47:35;31.90;43.30
12223;DHT22;6174;49.058;8.524;2022-07-03T14:50:11;31.80;43.90
12223;DHT22;6174;49.058;8.524;2022-07-03T14:52:46;31.80;44.70
12223;DHT22;6174;49.058;8.524;2022-07-03T14:55:12;31.50;43.90
12223;DHT22;6174;49.058;8.524;2022-07-03T14:58:30;31.10;44.50
12223;DHT22;6174;49.058;8.524;2022-07-03T15:03:33;30.40;46.00
12223;DHT22;6174;49.058;8.524;2022-07-03T15:06:08;30.20;46.50
12223;DHT22;6174;49.058;8.524;2022-07-03T15:09:01;30.10;47.30
12223;DHT22;6174;49.058;8.524;2022-07-03T15:11:34;30.00;46.40
12223;DHT22;6174;49.058;8.524;2022-07-03T15:14:23;29.90;48.50
12223;DHT22;6174;49.058;8.524;2022-07-03T15:17:03;29.80;49.20
12223;DHT22;6174;49.058;8.524;2022-07-03T15:19:33;29.90;49.70
12223;DHT22;6174;49.058;8.524;2022-07-03T15:22:02;29.80;49.70
12223;DHT22;6174;49.058;8.524;2022-07-03T15:24:32;29.80;49.30
12223;DHT22;6174;49.058;8.524;2022-07-03T15:27:12;29.70;48.50
12223;DHT22;6174;49.058;8.524;2022-07-03T15:29:48;29.60;48.50
12223;DHT22;6174;49.058;8.524;2022-07-03T15:32:19;29.60;48.80
12223;DHT22;6174;49.058;8.524;2022-07-03T15:34:48;29.50;49.90
12223;DHT22;6174;49.058;8.524;2022-07-03T15:37:39;29.40;49.20
12223;DHT22;6174;49.058;8.524;2022-07-03T15:40:25;29.30;50.70
12223;DHT22;6174;49.058;8.524;2022-07-03T15:43:14;29.20;51.30
12223;DHT22;6174;49.058;8.524;2022-07-03T15:45:48;29.10;51.70
12223;DHT22;6174;49.058;8.524;2022-07-03T15:48:39;29.00;51.00
12223;DHT22;6174;49.058;8.524;2022-07-03T15:51:21;28.90;50.60
12223;DHT22;6174;49.058;8.524;2022-07-03T15:53:54;28.90;50.20
12223;DHT22;6174;49.058;8.524;2022-07-03T15:56:29;28.80;50.30
12223;DHT22;6174;49.058;8.524;2022-07-03T15:59:03;28.80;50.10
12223;DHT22;6174;49.058;8.524;2022-07-03T16:01:52;28.70;50.60
12223;DHT22;6174;49.058;8.524;2022-07-03T16:05:00;28.70;51.20
12223;DHT22;6174;49.058;8.524;2022-07-03T16:07:29;28.70;51.40
12223;DHT22;6174;49.058;8.524;2022-07-03T16:09:59;28.70;52.50
12223;DHT22;6174;49.058;8.524;2022-07-03T16:12:29;28.80;51.30
12223;DHT22;6174;49.058;8.524;2022-07-03T16:14:58;28.80;51.70
12223;DHT22;6174;49.058;8.524;2022-07-03T16:17:26;28.90;51.40